sensor_id;sensor_type;location;lat;lon;timestamp;temperature;humidity
21023;DHT22;10669;51.076;3.714;2022-09-23T00:01:12;13.50;1.00
21023;DHT22;10669;51.076;3.714;2022-09-23T00:03:41;13.50;1.00
21023;DHT22;10669;51.076;3.714;2022-09-23T00:06:22;13.50;1.00
21023;DHT22;10669;51.076;3.714;2022-09-23T00:08:49;13.50;1.00
21023;DHT22;10669;51.076;3.714;2022-09-23T00:11:21;13.30;1.00
21023;DHT22;10669;51.076;3.714;2022-09-23T00:13:51;12.90;1.00
21023;DHT22;10669;51.076;3.714;2022-09-23T00:16:21;12.80;1.00
21023;DHT22;10669;51.076;3.714;2022-09-23T00:18:47;13.00;1.00
21023;DHT22;10669;51.076;3.714;2022-09-23T00:21:14;13.00;1.00
21023;DHT22;10669;51.076;3.714;2022-09-23T00:23:42;12.90;1.00
21023;DHT22;10669;51.076;3.714;2022-09-23T00:26:16;13.00;1.00
21023;DHT22;10669;51.076;3.714;2022-09-23T00:28:44;13.10;1.00
21023;DHT22;10669;51.076;3.714;2022-09-23T00:31:14;13.20;1.00
21023;DHT22;10669;51.076;3.714;2022-09-23T00:33:40;12.90;1.00
21023;DHT22;10669;51.076;3.714;2022-09-23T00:36:10;12.90;1.00
21023;DHT22;10669;51.076;3.714;2022-09-23T00:38:37;12.80;1.00
21023;DHT22;10669;51.076;3.714;2022-09-23T00:41:03;12.90;1.00
21023;DHT22;10669;51.076;3.714;2022-09-23T00:43:51;12.90;1.00
21023;DHT22;10669;51.076;3.714;2022-09-23T00:46:36;12.90;1.00
21023;DHT22;10669;51.076;3.714;2022-09-23T00:49:10;12.90;1.00
21023;DHT22;10669;51.076;3.714;2022-09-23T00:51:42;12.70;1.00
21023;DHT22;10669;51.076;3.714;2022-09-23T00:54:12;12.70;1.00
21023;DHT22;10669;51.076;3.714;2022-09-23T00:56:39;12.70;1.00
21023;DHT22;10669;51.076;3.714;2022-09-23T00:59:08;12.70;1.00
21023;DHT22;10669;51.076;3.714;2022-09-23T01:01:36;12.80;1.00
21023;DHT22;10669;51.076;3.714;2022-09-23T01:04:06;12.80;1.00
21023;DHT22;10669;51.076;3.714;2022-09-23T01:06:34;12.80;1.00
21023;DHT22;10669;51.076;3.714;2022-09-23T01:09:01;12.80;1.00
21023;DHT22;10669;51.076;3.714;2022-09-23T01:11:45;12.80;1.00
21023;DHT22;10669;51.076;3.714;2022-09-23T01:14:22;12.70;1.00
21023;DHT22;10669;51.076;3.714;2022-09-23T01:17:23;12.60;1.00
21023;DHT22;10669;51.076;3.714;2022-09-23T01:23:05;12.50;1.00
21023;DHT22;10669;51.076;3.714;2022-09-23T01:25:50;12.70;1.00
21023;DHT22;10669;51.076;3.714;2022-09-23T01:33:54;12.70;1.00
21023;DHT22;10669;51.076;3.714;2022-09-23T01:36:25;12.70;1.00
21023;DHT22;10669;51.076;3.714;2022-09-23T01:39:34;12.50;1.00
21023;DHT22;10669;51.076;3.714;2022-09-23T01:47:43;12.70;1.00
21023;DHT22;10669;51.076;3.714;2022-09-23T01:50:22;12.60;1.00
21023;DHT22;10669;51.076;3.714;2022-09-23T01:53:18;12.60;1.00
21023;DHT22;10669;51.076;3.714;2022-09-23T01:55:49;12.80;1.00
21023;DHT22;10669;51.076;3.714;2022-09-23T01:58:44;12.80;1.00
21023;DHT22;10669;51.076;3.714;2022-09-23T02:01:14;12.80;1.00
21023;DHT22;10669;51.076;3.714;2022-09-23T02:04:45;12.90;1.00
21023;DHT22;10669;51.076;3.714;2022-09-23T02:06:47;13.00;1.00
21023;DHT22;10669;51.076;3.714;2022-09-23T02:09:22;12.90;1.00
21023;DHT22;10669;51.076;3.714;2022-09-23T02:11:51;12.70;1.00
21023;DHT22;10669;51.076;3.714;2022-09-23T02:14:25;12.60;1.00
21023;DHT22;10669;51.076;3.714;2022-09-23T02:16:58;12.50;1.00
21023;DHT22;10669;51.076;3.714;2022-09-23T02:19:33;12.70;1.00
21023;DHT22;10669;51.076;3.714;2022-09-23T02:22:08;12.60;1.00
21023;DHT22;10669;51.076;3.714;2022-09-23T02:24:38;12.60;1.00
21023;DHT22;10669;51.076;3.714;2022-09-23T02:27:16;12.60;1.00
21023;DHT22;10669;51.076;3.714;2022-09-23T02:40:22;12.90;1.00
21023;DHT22;10669;51.076;3.714;2022-09-23T02:43:11;12.80;1.00
21023;DHT22;10669;51.076;3.714;2022-09-23T02:45:40;12.70;1.00
21023;DHT22;10669;51.076;3.714;2022-09-23T02:48:14;12.60;1.00
21023;DHT22;10669;51.076;3.714;2022-09-23T02:50:42;12.70;1.00
21023;DHT22;10669;51.076;3.714;2022-09-23T02:53:10;12.70;1.00
21023;DHT22;10669;51.076;3.714;2022-09-23T02:55:39;12.90;1.00
21023;DHT22;10669;51.076;3.714;2022-09-23T02:58:07;12.80;1.00
21023;DHT22;10669;51.076;3.714;2022-09-23T03:03:41;12.80;1.00
21023;DHT22;10669;51.076;3.714;2022-09-23T03:06:20;12.70;1.00
21023;DHT22;10669;51.076;3.714;2022-09-23T03:09:00;12.60;1.00
21023;DHT22;10669;51.076;3.714;2022-09-23T03:11:28;12.70;1.00
21023;DHT22;10669;51.076;3.714;2022-09-23T03:16:47;12.80;1.00
21023;DHT22;10669;51.076;3.714;2022-09-23T03:20:22;12.70;1.00
21023;DHT22;10669;51.076;3.714;2022-09-23T03:22:32;12.90;1.00
21023;DHT22;10669;51.076;3.714;2022-09-23T03:25:06;12.70;1.00
21023;DHT22;10669;51.076;3.714;2022-09-23T03:27:35;12.70;1.00
21023;DHT22;10669;51.076;3.714;2022-09-23T03:30:04;12.90;1.00
21023;DHT22;10669;51.076;3.714;2022-09-23T03:32:31;12.90;1.00
21023;DHT22;10669;51.076;3.714;2022-09-23T03:35:01;12.90;1.00
21023;DHT22;10669;51.076;3.714;2022-09-23T03:37:51;13.10;1.00
21023;DHT22;10669;51.076;3.714;2022-09-23T03:40:25;13.20;1.00
21023;DHT22;10669;51.076;3.714;2022-09-23T03:42:55;13.10;1.00
21023;DHT22;10669;51.076;3.714;2022-09-23T03:45:26;13.10;1.00
21023;DHT22;10669;51.076;3.714;2022-09-23T03:47:54;13.00;1.00
21023;DHT22;10669;51.076;3.714;2022-09-23T03:50:20;13.00;1.00
21023;DHT22;10669;51.076;3.714;2022-09-23T03:52:47;13.00;1.00
21023;DHT22;10669;51.076;3.714;2022-09-23T03:55:18;13.30;1.00
21023;DHT22;10669;51.076;3.714;2022-09-23T03:57:44;13.20;1.00
21023;DHT22;10669;51.076;3.714;2022-09-23T04:00:12;13.10;1.00
21023;DHT22;10669;51.076;3.714;2022-09-23T04:02:38;13.10;1.00
21023;DHT22;10669;51.076;3.714;2022-09-23T04:05:04;13.20;1.00
21023;DHT22;10669;51.076;3.714;2022-09-23T04:07:31;13.10;1.00
21023;DHT22;10669;51.076;3.714;2022-09-23T04:09:57;13.10;1.00
21023;DHT22;10669;51.076;3.714;2022-09-23T04:12:23;13.10;1.00
21023;DHT22;10669;51.076;3.714;2022-09-23T04:14:50;13.00;1.00
21023;DHT22;10669;51.076;3.714;2022-09-23T04:17:16;13.00;1.00
21023;DHT22;10669;51.076;3.714;2022-09-23T04:19:45;13.00;1.00
21023;DHT22;10669;51.076;3.714;2022-09-23T04:22:11;12.90;1.00
21023;DHT22;10669;51.076;3.714;2022-09-23T04:24:37;12.80;1.00
21023;DHT22;10669;51.076;3.714;2022-09-23T04:27:03;12.70;1.00
21023;DHT22;10669;51.076;3.714;2022-09-23T04:29:32;12.70;1.00
21023;DHT22;10669;51.076;3.714;2022-09-23T04:31:58;12.70;1.00
21023;DHT22;10669;51.076;3.714;2022-09-23T04:34:23;12.90;1.00
21023;DHT22;10669;51.076;3.714;2022-09-23T04:36:49;12.90;1.00
21023;DHT22;10669;51.076;3.714;2022-09-23T04:39:16;13.00;1.00
21023;DHT22;10669;51.076;3.714;2022-09-23T04:41:43;12.80;1.00
21023;DHT22;10669;51.076;3.714;2022-09-23T04:44:11;12.90;1.00
21023;DHT22;10669;51.076;3.714;2022-09-23T04:46:39;12.90;1.00
21023;DHT22;10669;51.076;3.714;2022-09-23T04:49:07;12.70;1.00
21023;DHT22;10669;51.076;3.714;2022-09-23T04:51:33;12.60;1.00
21023;DHT22;10669;51.076;3.714;2022-09-23T04:54:00;12.70;1.00
21023;DHT22;10669;51.076;3.714;2022-09-23T04:56:29;12.70;1.00
21023;DHT22;10669;51.076;3.714;2022-09-23T04:58:57;12.90;1.00
21023;DHT22;10669;51.076;3.714;2022-09-23T05:01:28;12.90;1.00
21023;DHT22;10669;51.076;3.714;2022-09-23T05:03:56;12.80;1.00
21023;DHT22;10669;51.076;3.714;2022-09-23T05:06:24;12.80;1.00
21023;DHT22;10669;51.076;3.714;2022-09-23T05:08:54;12.90;1.00
21023;DHT22;10669;51.076;3.714;2022-09-23T05:11:21;12.80;1.00
21023;DHT22;10669;51.076;3.714;2022-09-23T05:13:48;12.70;1.00
21023;DHT22;10669;51.076;3.714;2022-09-23T05:16:14;12.50;1.00
21023;DHT22;10669;51.076;3.714;2022-09-23T05:18:43;12.70;1.00
21023;DHT22;10669;51.076;3.714;2022-09-23T05:21:15;12.90;1.00
21023;DHT22;10669;51.076;3.714;2022-09-23T05:23:53;13.00;1.00
21023;DHT22;10669;51.076;3.714;2022-09-23T05:26:21;13.00;1.00
21023;DHT22;10669;51.076;3.714;2022-09-23T05:28:47;13.20;1.00
21023;DHT22;10669;51.076;3.714;2022-09-23T05:31:15;13.20;1.00
21023;DHT22;10669;51.076;3.714;2022-09-23T05:33:45;13.20;1.00
21023;DHT22;10669;51.076;3.714;2022-09-23T05:36:12;12.90;1.00
21023;DHT22;10669;51.076;3.714;2022-09-23T05:38:39;12.80;1.00
21023;DHT22;10669;51.076;3.714;2022-09-23T05:41:07;12.70;1.00
21023;DHT22;10669;51.076;3.714;2022-09-23T05:43:35;12.60;1.00
21023;DHT22;10669;51.076;3.714;2022-09-23T05:46:11;12.60;1.00
21023;DHT22;10669;51.076;3.714;2022-09-23T05:48:40;12.70;1.00
21023;DHT22;10669;51.076;3.714;2022-09-23T05:51:09;12.70;1.00
21023;DHT22;10669;51.076;3.714;2022-09-23T05:53:40;12.80;1.00
21023;DHT22;10669;51.076;3.714;2022-09-23T05:56:12;12.70;1.00
21023;DHT22;10669;51.076;3.714;2022-09-23T05:58:39;12.80;1.00
21023;DHT22;10669;51.076;3.714;2022-09-23T06:01:13;13.00;1.00
21023;DHT22;10669;51.076;3.714;2022-09-23T06:03:39;13.00;1.00
21023;DHT22;10669;51.076;3.714;2022-09-23T06:06:11;13.10;1.00
21023;DHT22;10669;51.076;3.714;2022-09-23T06:08:41;13.10;1.00
21023;DHT22;10669;51.076;3.714;2022-09-23T06:11:09;13.40;1.00
21023;DHT22;10669;51.076;3.714;2022-09-23T06:13:35;13.40;1.00
21023;DHT22;10669;51.076;3.714;2022-09-23T06:16:12;13.40;1.00
21023;DHT22;10669;51.076;3.714;2022-09-23T06:18:43;13.50;1.00
21023;DHT22;10669;51.076;3.714;2022-09-23T06:21:12;13.50;1.00
21023;DHT22;10669;51.076;3.714;2022-09-23T06:23:38;13.60;1.00
21023;DHT22;10669;51.076;3.714;2022-09-23T06:26:05;13.70;1.00
21023;DHT22;10669;51.076;3.714;2022-09-23T06:28:33;13.80;1.00
21023;DHT22;10669;51.076;3.714;2022-09-23T06:31:00;13.70;1.00
21023;DHT22;10669;51.076;3.714;2022-09-23T06:33:29;13.70;1.00
21023;DHT22;10669;51.076;3.714;2022-09-23T06:36:04;13.70;1.00
21023;DHT22;10669;51.076;3.714;2022-09-23T06:38:33;13.90;1.00
21023;DHT22;10669;51.076;3.714;2022-09-23T06:40:59;14.00;99.90
21023;DHT22;10669;51.076;3.714;2022-09-23T06:43:26;14.00;99.90
21023;DHT22;10669;51.076;3.714;2022-09-23T06:45:55;14.00;99.90
21023;DHT22;10669;51.076;3.714;2022-09-23T06:48:23;13.80;99.90
21023;DHT22;10669;51.076;3.714;2022-09-23T06:50:50;13.80;99.90
21023;DHT22;10669;51.076;3.714;2022-09-23T06:53:17;14.00;99.90
21023;DHT22;10669;51.076;3.714;2022-09-23T06:55:43;14.10;99.90
21023;DHT22;10669;51.076;3.714;2022-09-23T06:58:10;14.10;99.90
21023;DHT22;10669;51.076;3.714;2022-09-23T07:00:39;14.20;99.90
21023;DHT22;10669;51.076;3.714;2022-09-23T07:03:08;14.30;99.90
21023;DHT22;10669;51.076;3.714;2022-09-23T07:05:35;14.40;99.90
21023;DHT22;10669;51.076;3.714;2022-09-23T07:08:07;14.40;99.90
21023;DHT22;10669;51.076;3.714;2022-09-23T07:10:36;14.50;99.90
21023;DHT22;10669;51.076;3.714;2022-09-23T07:13:03;14.60;99.90
21023;DHT22;10669;51.076;3.714;2022-09-23T07:15:29;14.70;23.60
21023;DHT22;10669;51.076;3.714;2022-09-23T07:17:56;14.80;55.50
21023;DHT22;10669;51.076;3.714;2022-09-23T07:20:21;14.90;65.90
21023;DHT22;10669;51.076;3.714;2022-09-23T07:22:51;14.90;83.00
21023;DHT22;10669;51.076;3.714;2022-09-23T07:25:18;14.90;1.00
21023;DHT22;10669;51.076;3.714;2022-09-23T07:27:44;14.70;1.00
21023;DHT22;10669;51.076;3.714;2022-09-23T07:30:13;14.70;1.00
21023;DHT22;10669;51.076;3.714;2022-09-23T07:32:41;14.60;99.90
21023;DHT22;10669;51.076;3.714;2022-09-23T07:35:07;14.70;99.90
21023;DHT22;10669;51.076;3.714;2022-09-23T07:37:33;14.80;99.90
21023;DHT22;10669;51.076;3.714;2022-09-23T07:39:59;14.90;99.90
21023;DHT22;10669;51.076;3.714;2022-09-23T07:42:25;14.90;99.90
21023;DHT22;10669;51.076;3.714;2022-09-23T07:44:50;15.10;99.90
21023;DHT22;10669;51.076;3.714;2022-09-23T07:47:21;15.20;1.00
21023;DHT22;10669;51.076;3.714;2022-09-23T07:49:48;15.30;1.00
21023;DHT22;10669;51.076;3.714;2022-09-23T07:52:14;15.20;1.00
21023;DHT22;10669;51.076;3.714;2022-09-23T07:54:40;15.30;1.00
21023;DHT22;10669;51.076;3.714;2022-09-23T07:57:05;15.30;1.00
21023;DHT22;10669;51.076;3.714;2022-09-23T07:59:31;15.40;1.00
21023;DHT22;10669;51.076;3.714;2022-09-23T08:01:59;15.40;1.00
21023;DHT22;10669;51.076;3.714;2022-09-23T08:04:30;15.60;1.00
21023;DHT22;10669;51.076;3.714;2022-09-23T08:07:00;15.60;1.00
21023;DHT22;10669;51.076;3.714;2022-09-23T08:09:29;15.70;1.00
21023;DHT22;10669;51.076;3.714;2022-09-23T08:12:00;15.70;1.00
21023;DHT22;10669;51.076;3.714;2022-09-23T08:14:27;15.60;1.00
21023;DHT22;10669;51.076;3.714;2022-09-23T08:16:56;15.60;1.00
21023;DHT22;10669;51.076;3.714;2022-09-23T08:19:25;15.50;1.00
21023;DHT22;10669;51.076;3.714;2022-09-23T08:21:51;15.60;1.00
21023;DHT22;10669;51.076;3.714;2022-09-23T08:24:19;15.70;1.00
21023;DHT22;10669;51.076;3.714;2022-09-23T08:26:47;15.90;1.00
21023;DHT22;10669;51.076;3.714;2022-09-23T08:29:17;16.00;1.00
21023;DHT22;10669;51.076;3.714;2022-09-23T08:31:44;16.10;1.00
21023;DHT22;10669;51.076;3.714;2022-09-23T08:34:11;16.20;1.00
21023;DHT22;10669;51.076;3.714;2022-09-23T08:36:38;16.40;1.00
21023;DHT22;10669;51.076;3.714;2022-09-23T08:39:04;16.60;1.00
21023;DHT22;10669;51.076;3.714;2022-09-23T08:44:12;16.90;5.20
21023;DHT22;10669;51.076;3.714;2022-09-23T08:46:54;16.90;1.00
21023;DHT22;10669;51.076;3.714;2022-09-23T08:49:35;16.80;99.90
21023;DHT22;10669;51.076;3.714;2022-09-23T08:52:12;16.70;99.90
21023;DHT22;10669;51.076;3.714;2022-09-23T08:54:39;16.60;99.90
21023;DHT22;10669;51.076;3.714;2022-09-23T08:57:06;16.50;1.00
21023;DHT22;10669;51.076;3.714;2022-09-23T08:59:41;16.20;1.00
21023;DHT22;10669;51.076;3.714;2022-09-23T09:02:19;16.30;1.00
21023;DHT22;10669;51.076;3.714;2022-09-23T09:04:59;16.30;1.00
21023;DHT22;10669;51.076;3.714;2022-09-23T09:07:31;16.40;1.00
21023;DHT22;10669;51.076;3.714;2022-09-23T09:10:17;16.60;1.00
21023;DHT22;10669;51.076;3.714;2022-09-23T09:13:04;16.70;1.00
21023;DHT22;10669;51.076;3.714;2022-09-23T09:15:52;16.90;1.00
21023;DHT22;10669;51.076;3.714;2022-09-23T09:18:24;17.10;1.00
21023;DHT22;10669;51.076;3.714;2022-09-23T09:21:09;17.10;99.90
21023;DHT22;10669;51.076;3.714;2022-09-23T09:23:55;17.00;99.90
21023;DHT22;10669;51.076;3.714;2022-09-23T09:26:32;16.70;1.00
21023;DHT22;10669;51.076;3.714;2022-09-23T09:29:16;16.50;1.00
21023;DHT22;10669;51.076;3.714;2022-09-23T09:31:46;16.70;1.00
21023;DHT22;10669;51.076;3.714;2022-09-23T09:39:19;17.10;1.00
21023;DHT22;10669;51.076;3.714;2022-09-23T09:41:47;17.30;1.00
21023;DHT22;10669;51.076;3.714;2022-09-23T09:44:50;17.40;1.00
21023;DHT22;10669;51.076;3.714;2022-09-23T09:47:47;17.60;1.00
21023;DHT22;10669;51.076;3.714;2022-09-23T09:53:23;17.50;99.90
21023;DHT22;10669;51.076;3.714;2022-09-23T09:58:31;17.50;1.00
21023;DHT22;10669;51.076;3.714;2022-09-23T10:00:59;17.70;1.00
21023;DHT22;10669;51.076;3.714;2022-09-23T10:03:48;17.50;99.90
21023;DHT22;10669;51.076;3.714;2022-09-23T10:06:27;17.30;1.00
21023;DHT22;10669;51.076;3.714;2022-09-23T10:09:16;17.20;1.00
21023;DHT22;10669;51.076;3.714;2022-09-23T10:12:07;17.20;1.00
21023;DHT22;10669;51.076;3.714;2022-09-23T10:14:35;17.20;1.00
21023;DHT22;10669;51.076;3.714;2022-09-23T10:17:04;17.20;1.00
21023;DHT22;10669;51.076;3.714;2022-09-23T10:19:34;17.30;1.00
21023;DHT22;10669;51.076;3.714;2022-09-23T10:22:03;17.60;1.00
21023;DHT22;10669;51.076;3.714;2022-09-23T10:24:34;17.60;1.00
21023;DHT22;10669;51.076;3.714;2022-09-23T10:27:06;17.80;1.00
21023;DHT22;10669;51.076;3.714;2022-09-23T10:29:37;17.80;1.00
21023;DHT22;10669;51.076;3.714;2022-09-23T10:32:34;17.70;1.00
21023;DHT22;10669;51.076;3.714;2022-09-23T10:37:38;18.00;1.00
21023;DHT22;10669;51.076;3.714;2022-09-23T10:40:18;18.20;73.00
21023;DHT22;10669;51.076;3.714;2022-09-23T10:46:19;18.40;1.00
21023;DHT22;10669;51.076;3.714;2022-09-23T10:58:34;18.60;99.90
21023;DHT22;10669;51.076;3.714;2022-09-23T11:06:50;18.80;6.00
21023;DHT22;10669;51.076;3.714;2022-09-23T11:09:48;18.70;1.00
21023;DHT22;10669;51.076;3.714;2022-09-23T11:12:41;18.80;99.90
21023;DHT22;10669;51.076;3.714;2022-09-23T11:28:56;19.50;99.90
21023;DHT22;10669;51.076;3.714;2022-09-23T11:31:45;19.50;99.90
21023;DHT22;10669;51.076;3.714;2022-09-23T11:34:29;19.60;99.90
21023;DHT22;10669;51.076;3.714;2022-09-23T11:37:04;19.70;19.10
21023;DHT22;10669;51.076;3.714;2022-09-23T11:39:36;19.60;1.00
21023;DHT22;10669;51.076;3.714;2022-09-23T11:42:12;19.70;99.90
21023;DHT22;10669;51.076;3.714;2022-09-23T11:44:46;19.70;1.00
21023;DHT22;10669;51.076;3.714;2022-09-23T11:47:21;19.90;1.00
21023;DHT22;10669;51.076;3.714;2022-09-23T11:52:53;20.00;99.90
21023;DHT22;10669;51.076;3.714;2022-09-23T11:55:27;19.80;99.90
21023;DHT22;10669;51.076;3.714;2022-09-23T12:00:26;19.70;1.00
21023;DHT22;10669;51.076;3.714;2022-09-23T12:05:40;19.90;1.00
21023;DHT22;10669;51.076;3.714;2022-09-23T12:08:29;19.80;1.00
21023;DHT22;10669;51.076;3.714;2022-09-23T12:27:41;20.00;99.90
21023;DHT22;10669;51.076;3.714;2022-09-23T12:30:28;20.10;92.70
21023;DHT22;10669;51.076;3.714;2022-09-23T12:33:23;20.00;99.90
21023;DHT22;10669;51.076;3.714;2022-09-23T12:36:05;20.00;99.90
21023;DHT22;10669;51.076;3.714;2022-09-23T12:38:51;20.20;99.90
21023;DHT22;10669;51.076;3.714;2022-09-23T12:44:39;20.50;1.00
21023;DHT22;10669;51.076;3.714;2022-09-23T12:49:55;20.00;99.90
21023;DHT22;10669;51.076;3.714;2022-09-23T12:52:28;19.90;1.00
21023;DHT22;10669;51.076;3.714;2022-09-23T12:57:50;20.10;1.00
21023;DHT22;10669;51.076;3.714;2022-09-23T13:05:57;20.40;73.50
21023;DHT22;10669;51.076;3.714;2022-09-23T13:08:45;20.20;99.90
21023;DHT22;10669;51.076;3.714;2022-09-23T13:11:30;19.90;1.00
21023;DHT22;10669;51.076;3.714;2022-09-23T13:13:59;19.70;1.00
21023;DHT22;10669;51.076;3.714;2022-09-23T13:16:40;19.80;1.00
21023;DHT22;10669;51.076;3.714;2022-09-23T13:22:08;19.70;1.00
21023;DHT22;10669;51.076;3.714;2022-09-23T13:24:59;19.50;23.00
21023;DHT22;10669;51.076;3.714;2022-09-23T13:27:35;19.60;31.00
21023;DHT22;10669;51.076;3.714;2022-09-23T13:30:05;19.70;1.00
21023;DHT22;10669;51.076;3.714;2022-09-23T13:32:38;19.70;1.00
21023;DHT22;10669;51.076;3.714;2022-09-23T13:37:40;19.40;1.00
21023;DHT22;10669;51.076;3.714;2022-09-23T13:40:27;19.40;99.90
21023;DHT22;10669;51.076;3.714;2022-09-23T13:43:06;19.50;99.90
21023;DHT22;10669;51.076;3.714;2022-09-23T13:45:39;19.50;96.30
21023;DHT22;10669;51.076;3.714;2022-09-23T13:48:12;19.60;97.10
21023;DHT22;10669;51.076;3.714;2022-09-23T13:50:43;19.50;99.90
21023;DHT22;10669;51.076;3.714;2022-09-23T13:53:19;19.50;99.90
21023;DHT22;10669;51.076;3.714;2022-09-23T13:56:00;19.50;99.90
21023;DHT22;10669;51.076;3.714;2022-09-23T13:58:29;19.40;99.90
21023;DHT22;10669;51.076;3.714;2022-09-23T14:00:57;19.40;99.90
21023;DHT22;10669;51.076;3.714;2022-09-23T14:05:59;19.80;99.90
21023;DHT22;10669;51.076;3.714;2022-09-23T14:08:28;19.70;1.00
21023;DHT22;10669;51.076;3.714;2022-09-23T14:10:55;19.80;99.90
21023;DHT22;10669;51.076;3.714;2022-09-23T14:13:25;19.70;99.90
21023;DHT22;10669;51.076;3.714;2022-09-23T14:15:54;19.80;99.90
21023;DHT22;10669;51.076;3.714;2022-09-23T14:18:44;19.80;99.90
21023;DHT22;10669;51.076;3.714;2022-09-23T14:21:34;19.90;99.90
21023;DHT22;10669;51.076;3.714;2022-09-23T14:24:15;20.00;99.90
21023;DHT22;10669;51.076;3.714;2022-09-23T14:29:16;19.80;99.90
21023;DHT22;10669;51.076;3.714;2022-09-23T14:31:50;19.90;66.80
21023;DHT22;10669;51.076;3.714;2022-09-23T14:34:41;20.00;7.90
21023;DHT22;10669;51.076;3.714;2022-09-23T14:40:12;20.10;1.00
21023;DHT22;10669;51.076;3.714;2022-09-23T14:42:41;20.20;1.00
21023;DHT22;10669;51.076;3.714;2022-09-23T14:45:13;20.20;1.00
21023;DHT22;10669;51.076;3.714;2022-09-23T14:47:42;20.20;13.00
21023;DHT22;10669;51.076;3.714;2022-09-23T14:50:23;20.40;1.00
21023;DHT22;10669;51.076;3.714;2022-09-23T14:56:07;20.10;2.40
21023;DHT22;10669;51.076;3.714;2022-09-23T14:58:58;19.80;99.90
21023;DHT22;10669;51.076;3.714;2022-09-23T15:07:01;19.50;1.00
21023;DHT22;10669;51.076;3.714;2022-09-23T15:09:39;19.40;1.00
21023;DHT22;10669;51.076;3.714;2022-09-23T15:12:16;19.40;1.00
21023;DHT22;10669;51.076;3.714;2022-09-23T15:14:52;19.40;1.00
21023;DHT22;10669;51.076;3.714;2022-09-23T15:20:04;19.50;1.00
21023;DHT22;10669;51.076;3.714;2022-09-23T15:22:47;19.40;1.00
21023;DHT22;10669;51.076;3.714;2022-09-23T15:25:34;19.20;1.00
21023;DHT22;10669;51.076;3.714;2022-09-23T15:30:29;18.80;1.00
21023;DHT22;10669;51.076;3.714;2022-09-23T15:32:56;18.60;1.00
21023;DHT22;10669;51.076;3.714;2022-09-23T15:35:24;18.40;1.00
21023;DHT22;10669;51.076;3.714;2022-09-23T15:37:53;18.40;1.00
21023;DHT22;10669;51.076;3.714;2022-09-23T15:40:33;18.30;1.00
21023;DHT22;10669;51.076;3.714;2022-09-23T15:43:06;18.30;1.00
21023;DHT22;10669;51.076;3.714;2022-09-23T15:45:40;18.50;1.00
21023;DHT22;10669;51.076;3.714;2022-09-23T15:48:20;18.30;1.00
21023;DHT22;10669;51.076;3.714;2022-09-23T15:50:49;18.20;1.00
21023;DHT22;10669;51.076;3.714;2022-09-23T15:53:20;18.10;1.00
21023;DHT22;10669;51.076;3.714;2022-09-23T15:55:49;17.90;1.00
21023;DHT22;10669;51.076;3.714;2022-09-23T15:58:20;17.90;1.00
21023;DHT22;10669;51.076;3.714;2022-09-23T16:00:54;18.00;1.00
21023;DHT22;10669;51.076;3.714;2022-09-23T16:03:21;18.00;1.00
21023;DHT22;10669;51.076;3.714;2022-09-23T16:05:50;18.10;1.00
21023;DHT22;10669;51.076;3.714;2022-09-23T16:08:17;18.00;1.00
21023;DHT22;10669;51.076;3.714;2022-09-23T16:10:52;17.90;1.00
21023;DHT22;10669;51.076;3.714;2022-09-23T16:13:19;17.90;1.00
21023;DHT22;10669;51.076;3.714;2022-09-23T16:15:46;18.00;1.00
21023;DHT22;10669;51.076;3.714;2022-09-23T16:18:12;18.00;1.00
21023;DHT22;10669;51.076;3.714;2022-09-23T16:20:43;18.20;1.00
21023;DHT22;10669;51.076;3.714;2022-09-23T16:23:24;18.00;1.00
21023;DHT22;10669;51.076;3.714;2022-09-23T16:26:03;18.00;1.00
21023;DHT22;10669;51.076;3.714;2022-09-23T16:28:31;17.80;1.00
21023;DHT22;10669;51.076;3.714;2022-09-23T16:30:57;17.80;1.00
21023;DHT22;10669;51.076;3.714;2022-09-23T16:33:23;17.70;1.00
21023;DHT22;10669;51.076;3.714;2022-09-23T16:35:51;17.60;1.00
21023;DHT22;10669;51.076;3.714;2022-09-23T16:38:17;17.40;1.00
21023;DHT22;10669;51.076;3.714;2022-09-23T16:40:42;17.30;1.00
21023;DHT22;10669;51.076;3.714;2022-09-23T16:43:09;17.10;6.50
21023;DHT22;10669;51.076;3.714;2022-09-23T16:45:35;17.00;12.90
21023;DHT22;10669;51.076;3.714;2022-09-23T16:48:00;17.00;19.70
21023;DHT22;10669;51.076;3.714;2022-09-23T16:50:27;16.90;21.20
21023;DHT22;10669;51.076;3.714;2022-09-23T16:52:56;16.80;21.90
21023;DHT22;10669;51.076;3.714;2022-09-23T16:55:23;16.70;22.20
21023;DHT22;10669;51.076;3.714;2022-09-23T16:57:51;16.70;30.00
21023;DHT22;10669;51.076;3.714;2022-09-23T17:00:18;16.70;26.70
21023;DHT22;10669;51.076;3.714;2022-09-23T17:03:04;16.60;23.80
21023;DHT22;10669;51.076;3.714;2022-09-23T17:05:50;16.60;28.70
21023;DHT22;10669;51.076;3.714;2022-09-23T17:08:16;16.60;32.10
21023;DHT22;10669;51.076;3.714;2022-09-23T17:10:54;16.60;25.00
21023;DHT22;10669;51.076;3.714;2022-09-23T17:13:24;16.60;26.90
21023;DHT22;10669;51.076;3.714;2022-09-23T17:15:53;16.60;31.30
21023;DHT22;10669;51.076;3.714;2022-09-23T17:18:20;16.60;29.10
21023;DHT22;10669;51.076;3.714;2022-09-23T17:21:01;16.50;29.80
21023;DHT22;10669;51.076;3.714;2022-09-23T17:23:29;16.50;35.40
21023;DHT22;10669;51.076;3.714;2022-09-23T17:25:58;16.40;37.50
21023;DHT22;10669;51.076;3.714;2022-09-23T17:28:24;16.20;37.60
21023;DHT22;10669;51.076;3.714;2022-09-23T17:30:56;16.20;32.70
21023;DHT22;10669;51.076;3.714;2022-09-23T17:33:25;16.00;27.80
21023;DHT22;10669;51.076;3.714;2022-09-23T17:35:52;16.00;33.60
21023;DHT22;10669;51.076;3.714;2022-09-23T17:38:21;15.90;27.60
21023;DHT22;10669;51.076;3.714;2022-09-23T17:40:55;15.90;24.60
21023;DHT22;10669;51.076;3.714;2022-09-23T17:43:22;15.90;30.00
21023;DHT22;10669;51.076;3.714;2022-09-23T17:45:55;15.90;19.60
21023;DHT22;10669;51.076;3.714;2022-09-23T17:48:22;15.90;16.80
21023;DHT22;10669;51.076;3.714;2022-09-23T17:51:18;15.70;16.10
21023;DHT22;10669;51.076;3.714;2022-09-23T17:53:45;15.40;34.40
21023;DHT22;10669;51.076;3.714;2022-09-23T17:56:31;15.30;41.20
21023;DHT22;10669;51.076;3.714;2022-09-23T17:58:59;15.30;50.40
21023;DHT22;10669;51.076;3.714;2022-09-23T18:01:29;15.30;43.20
21023;DHT22;10669;51.076;3.714;2022-09-23T18:03:58;15.40;46.60
21023;DHT22;10669;51.076;3.714;2022-09-23T18:06:27;15.50;46.90
21023;DHT22;10669;51.076;3.714;2022-09-23T18:08:53;15.50;36.60
21023;DHT22;10669;51.076;3.714;2022-09-23T18:11:24;15.40;36.60
21023;DHT22;10669;51.076;3.714;2022-09-23T18:14:00;15.50;41.70
21023;DHT22;10669;51.076;3.714;2022-09-23T18:16:34;15.50;29.10
21023;DHT22;10669;51.076;3.714;2022-09-23T18:19:03;15.40;34.20
21023;DHT22;10669;51.076;3.714;2022-09-23T18:21:31;15.40;34.10
21023;DHT22;10669;51.076;3.714;2022-09-23T18:23:58;15.40;36.00
21023;DHT22;10669;51.076;3.714;2022-09-23T18:26:25;15.30;36.50
21023;DHT22;10669;51.076;3.714;2022-09-23T18:28:52;15.20;44.20
21023;DHT22;10669;51.076;3.714;2022-09-23T18:31:22;15.30;44.50
21023;DHT22;10669;51.076;3.714;2022-09-23T18:33:54;15.30;39.70
21023;DHT22;10669;51.076;3.714;2022-09-23T18:36:22;15.30;40.60
21023;DHT22;10669;51.076;3.714;2022-09-23T18:38:50;15.20;38.80
21023;DHT22;10669;51.076;3.714;2022-09-23T18:41:18;15.10;42.00